Time;durP1;ratioP1;P1;durP2;ratioP2;P2;SDS_P1;SDS_P2;PMS_P1;PMS_P2;Temp;Humidity;BMP_temperature;BMP_pressure;BME280_temperature;BME280_humidity;BME280_pressure;Samples;Min_cycle;Max_cycle;Signal;HPM_P1;HPM_P2
2021/06/18 00:00:21;;;;;;;14.75;10.93;;;;;;;22.55;67.56;101326.69;5114589;27;20057;-47
2021/06/18 00:02:49;;;;;;;16.88;11.90;;;;;;;22.38;68.37;101328.53;5132962;27;20054;-44
2021/06/18 00:05:16;;;;;;;15.88;12.10;;;;;;;22.37;68.50;101328.69;5133748;27;20047;-46
2021/06/18 00:07:44;;;;;;;17.02;12.13;;;;;;;22.42;68.27;101334.41;5133378;27;20549;-46
2021/06/18 00:10:13;;;;;;;15.77;13.25;;;;;;;22.41;68.58;101338.91;5133705;27;20403;-47
2021/06/18 00:12:41;;;;;;;16.40;13.80;;;;;;;22.37;68.68;101340.22;5115063;27;20491;-48
2021/06/18 00:15:09;;;;;;;17.08;13.75;;;;;;;22.33;69.00;101349.56;5132118;27;20047;-57
2021/06/18 00:17:36;;;;;;;16.90;13.05;;;;;;;22.34;69.14;101340.56;5115039;27;20046;-45
2021/06/18 00:20:05;;;;;;;16.67;13.85;;;;;;;22.30;69.21;101344.56;5133003;27;20485;-58
2021/06/18 00:22:32;;;;;;;17.92;14.30;;;;;;;22.11;69.88;101340.34;5133365;27;20047;-45
2021/06/18 00:24:59;;;;;;;16.77;14.32;;;;;;;22.07;70.05;101345.19;5132945;27;20035;-44
2021/06/18 00:27:26;;;;;;;18.45;15.20;;;;;;;22.05;69.94;101331.13;5133082;27;20059;-45
2021/06/18 00:29:53;;;;;;;16.90;14.95;;;;;;;22.01;69.87;101326.28;5113948;27;20047;-45
2021/06/18 00:32:20;;;;;;;18.90;14.95;;;;;;;21.97;69.85;101323.06;5133016;27;20561;-47
2021/06/18 00:34:47;;;;;;;16.90;14.98;;;;;;;21.94;69.78;101320.72;5132630;27;20055;-58
2021/06/18 00:37:13;;;;;;;18.75;15.60;;;;;;;21.83;70.18;101315.66;5114525;27;20058;-58
2021/06/18 00:39:40;;;;;;;19.27;15.20;;;;;;;21.85;70.03;101322.53;5115006;27;20039;-58
2021/06/18 00:42:07;;;;;;;16.05;14.27;;;;;;;21.89;70.02;101325.72;5131466;27;20514;-58
2021/06/18 00:44:35;;;;;;;17.90;14.95;;;;;;;21.89;70.10;101315.84;5132463;27;20043;-59
2021/06/18 00:47:02;;;;;;;18.30;15.07;;;;;;;21.93;69.77;101314.50;5113756;27;20039;-59
2021/06/18 00:49:30;;;;;;;18.65;16.10;;;;;;;21.89;70.02;101312.34;5114861;27;20035;-59
2021/06/18 00:51:57;;;;;;;18.92;15.77;;;;;;;21.78;70.51;101308.13;5132224;27;20047;-59
2021/06/18 00:54:30;;;;;;;18.08;15.77;;;;;;;21.70;70.99;101300.91;5132429;27;20108;-59
2021/06/18 00:56:58;;;;;;;21.08;16.50;;;;;;;21.68;70.92;101302.06;5130873;27;20056;-59
2021/06/18 00:59:25;;;;;;;20.08;17.05;;;;;;;21.75;70.78;101297.75;5131929;27;20039;-59
2021/06/18 01:01:52;;;;;;;19.70;17.02;;;;;;;21.72;70.73;101303.41;5132036;27;20429;-60
2021/06/18 01:04:23;;;;;;;19.30;16.70;;;;;;;21.65;71.07;101303.25;5132361;27;20121;-60
2021/06/18 01:07:02;;;;;;;19.80;17.25;;;;;;;21.53;71.30;101297.34;5113988;27;20039;-59
2021/06/18 01:09:33;;;;;;;19.65;17.52;;;;;;;21.59;71.30;101301.19;5114402;27;20054;-60
2021/06/18 01:12:09;;;;;;;21.70;17.95;;;;;;;21.51;71.62;101299.28;5131546;27;20051;-59
2021/06/18 01:14:41;;;;;;;22.25;17.92;;;;;;;21.50;71.68;101294.09;5131531;27;20151;-60
2021/06/18 01:17:16;;;;;;;23.55;19.17;;;;;;;21.44;71.88;101285.72;5113357;27;20185;-49
2021/06/18 01:20:05;;;;;;;23.20;18.95;;;;;;;21.45;71.84;101283.91;5132334;27;20154;-59
2021/06/18 01:22:34;;;;;;;21.42;18.23;;;;;;;21.49;71.46;101284.38;5132128;27;20043;-59
2021/06/18 01:25:33;;;;;;;24.50;20.25;;;;;;;21.41;71.67;101274.50;5131834;27;20057;-60
2021/06/18 01:28:03;;;;;;;23.42;19.70;;;;;;;21.39;71.96;101272.00;5112816;27;20418;-59
2021/06/18 01:30:33;;;;;;;23.52;19.98;;;;;;;21.32;71.84;101262.91;5113033;27;20043;-59
2021/06/18 01:33:03;;;;;;;24.70;21.60;;;;;;;21.32;72.09;101249.56;5112920;27;20495;-62
2021/06/18 01:35:43;;;;;;;23.92;20.00;;;;;;;21.28;71.87;101246.38;5131256;27;20047;-59
2021/06/18 01:38:11;;;;;;;25.85;21.67;;;;;;;21.27;72.34;101241.19;5112808;27;20109;-59
2021/06/18 01:40:40;;;;;;;25.55;21.90;;;;;;;21.20;72.62;101240.13;5131373;27;20477;-58
2021/06/18 01:43:08;;;;;;;26.85;21.35;;;;;;;21.04;72.82;101238.25;5096025;27;20047;-59
2021/06/18 01:45:36;;;;;;;28.88;22.30;;;;;;;21.01;72.93;101246.56;5112596;27;20051;-59
2021/06/18 01:48:05;;;;;;;27.02;21.58;;;;;;;20.99;73.47;101253.91;5112615;27;20051;-46
2021/06/18 01:50:32;;;;;;;28.88;22.95;;;;;;;20.96;73.52;101259.59;5096607;27;20043;-44
2021/06/18 01:53:06;;;;;;;25.60;22.33;;;;;;;20.92;73.47;101273.25;5112747;27;20043;-46
2021/06/18 01:55:34;;;;;;;27.75;23.17;;;;;;;20.87;73.63;101277.38;5113213;27;20051;-58
2021/06/18 01:58:03;;;;;;;27.38;23.88;;;;;;;20.88;73.59;101292.44;5112328;27;20039;-59
2021/06/18 02:00:31;;;;;;;26.73;21.85;;;;;;;20.96;73.09;101302.34;5095521;27;20529;-59
2021/06/18 02:03:02;;;;;;;26.40;22.65;;;;;;;20.99;73.15;101302.03;5112073;27;20047;-59
2021/06/18 02:05:31;;;;;;;26.13;23.25;;;;;;;20.88;73.81;101301.28;5130908;27;20054;-59
2021/06/18 02:07:58;;;;;;;28.38;24.05;;;;;;;20.88;73.95;101301.28;5130516;27;20051;-59
2021/06/18 02:10:26;;;;;;;24.95;22.00;;;;;;;20.93;73.57;101298.16;5131223;27;20104;-59
2021/06/18 02:12:55;;;;;;;25.88;22.13;;;;;;;20.93;73.71;101295.50;5112269;27;20452;-59
2021/06/18 02:15:23;;;;;;;26.08;22.40;;;;;;;20.94;73.63;101294.47;5112304;27;20046;-59
2021/06/18 02:17:51;;;;;;;28.40;23.63;;;;;;;20.93;74.00;101299.00;5130005;27;20039;-59
2021/06/18 02:20:20;;;;;;;26.23;22.38;;;;;;;20.95;73.58;101296.16;5130403;27;20462;-59
2021/06/18 02:22:48;;;;;;;26.73;22.23;;;;;;;20.93;73.47;101296.31;5112935;27;20054;-60
2021/06/18 02:25:16;;;;;;;27.05;22.23;;;;;;;21.01;73.31;101294.69;5112896;27;20054;-48
2021/06/18 02:27:43;;;;;;;25.20;21.50;;;;;;;21.00;73.22;101293.84;5130284;27;20047;-48
2021/06/18 02:30:30;;;;;;;30.52;23.08;;;;;;;21.00;72.92;101283.16;5111706;28;20055;-45
2021/06/18 02:32:58;;;;;;;25.95;22.17;;;;;;;21.00;73.09;101277.00;5110243;27;20051;-59
2021/06/18 02:35:25;;;;;;;25.90;22.90;;;;;;;20.91;73.22;101274.25;5112556;27;20051;-59
2021/06/18 02:37:52;;;;;;;27.55;22.60;;;;;;;20.90;73.32;101280.59;5112516;28;20104;-59
2021/06/18 02:40:19;;;;;;;27.17;24.25;;;;;;;20.86;73.71;101281.91;5112286;27;20503;-59
2021/06/18 02:42:46;;;;;;;26.15;22.63;;;;;;;20.93;73.23;101282.94;5129392;27;20051;-47
2021/06/18 02:45:13;;;;;;;26.08;22.00;;;;;;;20.92;73.49;101281.25;5111005;27;20047;-45
2021/06/18 02:48:15;;;;;;;26.50;23.63;;;;;;;20.90;73.73;101285.09;5112124;27;20457;-44
2021/06/18 02:50:44;;;;;;;29.20;23.80;;;;;;;20.83;73.97;101281.38;5126486;27;20051;-45
2021/06/18 02:53:17;;;;;;;26.88;22.63;;;;;;;20.82;73.73;101283.22;5112789;28;20096;-48
2021/06/18 02:55:52;;;;;;;27.13;22.73;;;;;;;20.81;74.17;101278.03;5112421;28;20055;-48
2021/06/18 02:58:23;;;;;;;29.35;23.83;;;;;;;20.73;74.41;101276.13;5130001;28;20051;-49
2021/06/18 03:00:52;;;;;;;27.58;24.00;;;;;;;20.68;74.52;101263.25;5129373;28;20027;-59
2021/06/18 03:03:22;;;;;;;28.08;23.85;;;;;;;20.69;74.35;101267.59;5130201;28;20047;-59
2021/06/18 03:05:50;;;;;;;27.75;24.30;;;;;;;20.66;74.55;101270.53;5130424;28;20047;-59
2021/06/18 03:08:17;;;;;;;27.85;24.75;;;;;;;20.70;74.77;101271.13;5130091;28;20538;-59
2021/06/18 03:10:49;;;;;;;30.83;25.00;;;;;;;20.69;74.81;101274.78;5112527;28;20054;-59
2021/06/18 03:13:20;;;;;;;28.45;24.05;;;;;;;20.67;74.46;101282.91;5111861;28;20975;-59
2021/06/18 03:15:47;;;;;;;29.40;25.25;;;;;;;20.60;75.09;101287.19;5111306;28;20055;-59
2021/06/18 03:18:18;;;;;;;29.42;23.83;;;;;;;20.67;74.57;101288.25;5130128;27;20046;-59
2021/06/18 03:20:46;;;;;;;29.42;25.52;;;;;;;20.60;75.06;101280.03;5116572;27;20039;-60
2021/06/18 03:23:15;;;;;;;30.35;25.00;;;;;;;20.66;74.91;101280.41;5116627;27;20035;-60
2021/06/18 03:25:42;;;;;;;30.73;25.35;;;;;;;20.58;75.21;101282.00;5099574;27;20456;-60
2021/06/18 03:28:10;;;;;;;32.80;25.17;;;;;;;20.64;74.93;101274.38;5115801;27;20047;-60
2021/06/18 03:30:38;;;;;;;32.63;26.40;;;;;;;20.54;75.64;101263.78;5115266;27;20504;-60
2021/06/18 03:33:06;;;;;;;30.23;25.42;;;;;;;20.55;75.58;101268.13;5133561;27;20129;-60
2021/06/18 03:35:34;;;;;;;28.75;25.27;;;;;;;20.51;75.70;101267.59;5116310;27;20051;-60
2021/06/18 03:38:01;;;;;;;28.15;24.73;;;;;;;20.53;75.89;101272.78;5115474;27;20182;-60
2021/06/18 03:40:28;;;;;;;29.77;26.23;;;;;;;20.57;75.60;101264.31;5133907;27;20043;-60
2021/06/18 03:42:55;;;;;;;31.58;26.48;;;;;;;20.62;75.70;101263.84;5115353;27;20529;-60
2021/06/18 03:45:22;;;;;;;31.33;26.23;;;;;;;20.65;75.55;101268.03;5114985;27;20517;-60
2021/06/18 03:47:49;;;;;;;30.00;26.05;;;;;;;20.74;74.89;101273.31;5133378;27;20103;-60
2021/06/18 03:50:22;;;;;;;28.67;25.67;;;;;;;20.72;75.02;101285.13;5115949;27;20044;-60
2021/06/18 03:52:49;;;;;;;31.77;26.27;;;;;;;20.73;74.94;101284.16;5115800;27;20059;-60
2021/06/18 03:55:16;;;;;;;32.80;25.17;;;;;;;20.80;74.97;101285.19;5115488;27;20100;-60
2021/06/18 03:57:45;;;;;;;29.55;25.95;;;;;;;20.80;74.82;101285.19;5115579;27;20112;-60
2021/06/18 04:00:13;;;;;;;29.65;25.92;;;;;;;20.76;75.22;101282.03;5115024;27;20043;-60
2021/06/18 04:02:41;;;;;;;31.60;27.48;;;;;;;20.76;75.15;101275.81;5133830;27;20483;-60
2021/06/18 04:05:14;;;;;;;31.35;26.42;;;;;;;20.74;75.21;101273.31;5115364;27;20058;-60
2021/06/18 04:07:47;;;;;;;29.40;24.52;;;;;;;20.86;74.94;101276.56;5133956;27;20528;-60
2021/06/18 04:10:16;;;;;;;30.42;26.15;;;;;;;20.82;75.02;101285.03;5115279;27;20054;-60
2021/06/18 04:12:44;;;;;;;30.38;25.15;;;;;;;20.90;74.88;101319.84;5114492;27;20119;-60
2021/06/18 04:15:12;;;;;;;29.67;26.13;;;;;;;20.92;74.72;101430.97;5113981;27;20100;-60
2021/06/18 04:17:40;;;;;;;28.65;24.50;;;;;;;20.99;75.61;101491.84;5133002;27;20490;-60
2021/06/18 04:20:08;;;;;;;27.73;23.52;;;;;;;21.05;75.08;101485.88;5133135;27;20081;-60
2021/06/18 04:22:35;;;;;;;29.90;24.80;;;;;;;20.95;75.20;101477.94;5115553;27;20051;-60
2021/06/18 04:25:04;;;;;;;26.98;24.10;;;;;;;20.97;75.07;101433.19;5115193;27;20108;-60
2021/06/18 04:27:33;;;;;;;27.67;23.10;;;;;;;21.03;74.18;101304.22;5132620;27;20051;-60
2021/06/18 04:30:08;;;;;;;23.75;21.20;;;;;;;21.17;73.84;101285.94;5113519;28;20035;-60
2021/06/18 04:32:35;;;;;;;25.38;20.98;;;;;;;21.19;74.80;101332.09;5133268;27;20043;-61
2021/06/18 04:35:04;;;;;;;24.58;20.52;;;;;;;21.23;74.87;101358.34;5133025;27;20043;-59
2021/06/18 04:37:31;;;;;;;24.50;21.05;;;;;;;21.25;74.38;101387.59;5132975;27;20039;-60
2021/06/18 04:39:57;;;;;;;26.17;20.95;;;;;;;21.23;75.06;101429.72;5098005;27;20043;-59
2021/06/18 04:42:24;;;;;;;24.08;20.88;;;;;;;21.26;76.21;101465.00;5132662;27;20035;-59
2021/06/18 04:44:51;;;;;;;23.30;20.42;;;;;;;21.29;75.96;101506.66;5114096;27;20510;-59
2021/06/18 04:47:19;;;;;;;26.55;19.08;;;;;;;21.31;75.76;101523.41;5114737;27;20047;-59
2021/06/18 04:49:47;;;;;;;20.67;17.88;;;;;;;21.37;76.21;101529.97;5132961;27;20407;-59
2021/06/18 04:52:15;;;;;;;22.40;17.38;;;;;;;21.37;75.49;101536.13;5133448;27;20447;-59
2021/06/18 04:54:42;;;;;;;23.25;16.77;;;;;;;21.33;75.84;101531.25;5115081;27;20526;-60
2021/06/18 04:57:09;;;;;;;19.27;16.10;;;;;;;21.33;75.84;101491.13;5113686;27;20043;-59
2021/06/18 04:59:39;;;;;;;28.38;18.92;;;;;;;21.23;77.84;101449.28;5132251;27;20393;-52
2021/06/18 05:02:06;;;;;;;26.10;18.63;;;;;;;21.18;79.88;101407.94;5097386;27;20121;-52
2021/06/18 05:04:33;;;;;;;21.92;18.40;;;;;;;21.00;80.30;101392.78;5114319;27;20563;-48
2021/06/18 05:07:00;;;;;;;25.77;17.83;;;;;;;20.75;81.05;101416.63;5132323;27;20043;-57
2021/06/18 05:09:27;;;;;;;20.77;17.63;;;;;;;20.63;82.17;101393.78;5132783;27;20039;-48
2021/06/18 05:11:54;;;;;;;22.98;18.20;;;;;;;20.68;81.85;101364.78;5131591;27;20051;-46
2021/06/18 05:14:21;;;;;;;23.40;19.52;;;;;;;20.65;82.92;101354.34;5113840;27;20051;-48
2021/06/18 05:16:47;;;;;;;20.88;18.33;;;;;;;20.62;82.19;101362.69;5112663;27;20062;-50
2021/06/18 05:19:14;;;;;;;21.33;18.30;;;;;;;20.47;82.78;101362.38;5132451;27;20126;-47
2021/06/18 05:21:41;;;;;;;22.45;18.73;;;;;;;20.48;83.35;101360.53;5132306;27;20047;-49
2021/06/18 05:24:09;;;;;;;23.48;18.92;;;;;;;20.57;83.34;101359.63;5132050;27;20054;-46
2021/06/18 05:26:36;;;;;;;22.88;20.40;;;;;;;20.60;83.22;101360.19;5131058;27;20051;-50
2021/06/18 05:29:03;;;;;;;21.73;19.38;;;;;;;20.68;82.69;101358.56;5132153;27;20035;-47
2021/06/18 05:31:30;;;;;;;23.55;20.27;;;;;;;20.62;83.19;101349.34;5130813;27;20092;-47
2021/06/18 05:33:57;;;;;;;21.92;19.60;;;;;;;20.68;83.19;101345.19;5113464;27;20086;-46
2021/06/18 05:36:24;;;;;;;23.83;19.40;;;;;;;20.73;82.89;101338.44;5113635;27;20111;-45
2021/06/18 05:38:51;;;;;;;22.23;19.83;;;;;;;20.84;82.22;101341.88;5131809;27;20055;-50
2021/06/18 05:41:18;;;;;;;24.67;20.38;;;;;;;20.95;82.09;101349.63;5113186;27;20077;-60
2021/06/18 05:43:44;;;;;;;23.70;21.13;;;;;;;21.03;81.99;101349.69;5133011;27;20043;-57
2021/06/18 05:46:12;;;;;;;25.80;23.00;;;;;;;21.10;81.99;101350.75;5132349;27;20055;-58
2021/06/18 05:48:38;;;;;;;27.08;23.88;;;;;;;21.15;82.05;101346.75;5132874;27;20071;-58
2021/06/18 05:51:05;;;;;;;25.52;22.83;;;;;;;21.21;80.84;101352.28;5132854;27;20051;-58
2021/06/18 05:53:32;;;;;;;24.85;22.27;;;;;;;21.30;81.23;101352.34;5132804;27;20096;-58
2021/06/18 05:55:59;;;;;;;24.85;22.23;;;;;;;21.40;81.05;101355.75;5132473;27;20631;-59
2021/06/18 05:58:27;;;;;;;25.77;22.92;;;;;;;21.48;80.43;101355.81;5132402;27;20051;-59
2021/06/18 06:00:54;;;;;;;22.80;20.40;;;;;;;21.50;79.51;101348.47;5113696;27;20043;-59
2021/06/18 06:03:22;;;;;;;22.50;20.17;;;;;;;21.58;80.34;101351.22;5114173;27;20055;-59
2021/06/18 06:05:49;;;;;;;22.80;20.40;;;;;;;21.76;79.31;101351.13;5131971;27;20134;-58
2021/06/18 06:08:17;;;;;;;22.95;20.55;;;;;;;21.83;80.58;101342.41;5131948;27;20145;-59
2021/06/18 06:10:48;;;;;;;25.50;22.27;;;;;;;21.91;81.15;101354.00;5131745;27;20437;-59
2021/06/18 06:13:16;;;;;;;25.05;22.55;;;;;;;21.99;80.84;101355.03;5131432;27;20620;-59
2021/06/18 06:15:43;;;;;;;25.98;23.17;;;;;;;22.04;80.91;101345.50;5112691;27;20053;-60
2021/06/18 06:18:10;;;;;;;24.98;22.17;;;;;;;21.97;79.26;101344.50;5131482;27;20529;-59
2021/06/18 06:20:40;;;;;;;26.05;23.38;;;;;;;22.00;79.49;101344.16;5113154;27;20402;-59
2021/06/18 06:23:08;;;;;;;25.77;23.00;;;;;;;21.96;79.04;101340.13;5130751;27;20047;-59
2021/06/18 06:25:35;;;;;;;24.73;22.13;;;;;;;22.03;77.57;101343.00;5131038;27;20081;-59
2021/06/18 06:28:02;;;;;;;23.73;21.17;;;;;;;22.06;77.33;101340.84;5095097;27;20043;-59
2021/06/18 06:30:29;;;;;;;24.42;21.10;;;;;;;22.05;77.38;101341.84;5130291;27;20078;-59
2021/06/18 06:32:56;;;;;;;22.90;20.38;;;;;;;22.11;77.04;101338.50;5130343;27;20055;-59
2021/06/18 06:35:24;;;;;;;21.35;19.17;;;;;;;22.19;76.64;101340.34;5114044;27;20055;-58
2021/06/18 06:37:52;;;;;;;24.55;20.38;;;;;;;22.14;76.76;101340.00;5132463;27;20063;-58
2021/06/18 06:40:20;;;;;;;23.17;20.88;;;;;;;22.36;77.70;101333.22;5113465;27;20567;-58
2021/06/18 06:42:47;;;;;;;21.77;19.58;;;;;;;22.48;76.64;101336.38;5129798;27;20046;-58
2021/06/18 06:45:15;;;;;;;19.88;17.80;;;;;;;22.64;77.02;101337.41;5130952;27;20051;-59
2021/06/18 06:47:42;;;;;;;24.42;20.17;;;;;;;22.77;75.24;101338.59;5131410;27;20043;-59
2021/06/18 06:50:10;;;;;;;20.05;17.88;;;;;;;22.94;73.70;101338.56;5130925;27;20058;-59
2021/06/18 06:52:37;;;;;;;22.05;17.27;;;;;;;22.99;72.48;101344.25;5130315;27;20051;-59
2021/06/18 06:55:05;;;;;;;19.60;17.50;;;;;;;23.11;72.91;101334.03;5131016;27;20050;-59
2021/06/18 06:57:32;;;;;;;21.05;18.95;;;;;;;23.25;71.99;101338.72;5131133;28;20502;-59
2021/06/18 06:59:59;;;;;;;21.85;19.65;;;;;;;23.29;71.84;101337.34;5112934;28;20085;-59
2021/06/18 07:02:25;;;;;;;21.10;18.80;;;;;;;23.46;71.08;101340.84;5095907;28;20039;-60
2021/06/18 07:04:52;;;;;;;21.17;18.88;;;;;;;23.71;70.47;101342.56;5132237;28;20043;-60
2021/06/18 07:07:19;;;;;;;18.88;16.90;;;;;;;23.78;68.90;101338.19;5131479;28;20039;-60
2021/06/18 07:09:46;;;;;;;19.83;16.73;;;;;;;23.84;68.69;101347.38;5130610;28;20059;-59
2021/06/18 07:12:13;;;;;;;17.90;15.85;;;;;;;23.99;68.88;101348.34;5130295;28;20092;-59
2021/06/18 07:14:40;;;;;;;18.60;16.15;;;;;;;23.92;67.74;101348.19;5130198;28;20057;-60
2021/06/18 07:17:07;;;;;;;18.42;16.55;;;;;;;24.01;67.87;101354.38;5130483;28;20047;-59
2021/06/18 07:19:34;;;;;;;18.55;16.30;;;;;;;23.96;67.54;101351.38;5095429;28;20396;-59
2021/06/18 07:22:01;;;;;;;19.23;16.08;;;;;;;24.11;67.76;101360.34;5130606;28;20096;-59
2021/06/18 07:24:29;;;;;;;19.33;16.30;;;;;;;24.29;68.60;101351.19;5130807;28;20055;-59
2021/06/18 07:26:55;;;;;;;18.05;16.17;;;;;;;24.47;66.52;101348.19;5111847;28;20494;-59
2021/06/18 07:29:22;;;;;;;17.73;15.68;;;;;;;24.66;66.26;101346.88;5131107;28;20046;-59
2021/06/18 07:31:49;;;;;;;18.33;16.33;;;;;;;24.69;64.68;101351.06;5129822;28;20039;-60
2021/06/18 07:34:16;;;;;;;16.77;14.98;;;;;;;24.67;65.31;101343.19;5130849;28;20058;-60
2021/06/18 07:36:43;;;;;;;16.73;15.02;;;;;;;24.88;65.19;101344.34;5130828;28;20070;-59
2021/06/18 07:39:09;;;;;;;17.65;14.57;;;;;;;24.90;61.72;101353.09;5130135;28;20051;-60
2021/06/18 07:41:38;;;;;;;16.70;14.00;;;;;;;24.82;62.58;101359.38;5110621;28;20050;-61
2021/06/18 07:44:05;;;;;;;16.42;14.10;;;;;;;24.83;62.73;101357.50;5110506;28;20046;-60
2021/06/18 07:46:32;;;;;;;16.30;14.52;;;;;;;24.85;63.08;101361.69;5127809;28;20783;-61
2021/06/18 07:48:59;;;;;;;16.33;14.63;;;;;;;24.85;63.65;101358.16;5129412;28;20051;-61
2021/06/18 07:51:26;;;;;;;17.52;15.48;;;;;;;24.80;63.29;101354.19;5094521;28;20051;-60
2021/06/18 07:53:53;;;;;;;17.38;15.27;;;;;;;25.03;62.64;101347.88;5129310;28;20059;-60
2021/06/18 07:56:27;;;;;;;18.58;15.82;;;;;;;24.97;63.56;101345.94;5128234;28;20043;-60
2021/06/18 07:58:54;;;;;;;18.38;16.58;;;;;;;24.92;62.26;101346.50;5110705;28;20048;-60
2021/06/18 08:01:21;;;;;;;18.23;16.05;;;;;;;24.96;62.98;101346.97;5128717;28;20047;-60
2021/06/18 08:03:48;;;;;;;20.80;16.70;;;;;;;24.85;62.38;101342.84;5110688;28;20614;-60
2021/06/18 08:06:16;;;;;;;18.45;16.25;;;;;;;24.93;63.28;101333.88;5131974;27;20039;-60
2021/06/18 08:08:44;;;;;;;19.13;17.30;;;;;;;24.82;62.93;101339.72;5115127;27;20088;-60
2021/06/18 08:11:11;;;;;;;18.77;16.80;;;;;;;24.83;64.14;101327.91;5097889;27;20047;-61
2021/06/18 08:13:38;;;;;;;20.13;17.92;;;;;;;24.77;63.00;101314.22;5115162;27;20039;-46
2021/06/18 08:16:05;;;;;;;20.45;18.13;;;;;;;24.54;63.60;101302.59;5097268;27;20051;-50
2021/06/18 08:18:36;;;;;;;21.63;19.33;;;;;;;24.41;64.68;101287.94;5114715;27;20129;-49
2021/06/18 08:21:03;;;;;;;20.60;18.35;;;;;;;24.42;64.29;101281.53;5115579;27;20364;-44
2021/06/18 08:23:30;;;;;;;23.13;19.90;;;;;;;24.22;65.23;101275.81;5115370;27;20379;-46
2021/06/18 08:25:58;;;;;;;22.25;19.95;;;;;;;24.39;65.07;101279.22;5114709;27;20043;-45
2021/06/18 08:28:26;;;;;;;23.65;20.13;;;;;;;24.26;64.66;101276.31;5132735;27;20096;-49
2021/06/18 08:30:52;;;;;;;21.40;18.95;;;;;;;24.17;64.79;101272.81;5132266;27;20042;-51
2021/06/18 08:33:19;;;;;;;23.90;20.90;;;;;;;24.18;64.79;101274.50;5133244;27;20046;-49
2021/06/18 08:35:47;;;;;;;24.77;22.27;;;;;;;23.86;65.62;101286.28;5132694;27;20047;-61
2021/06/18 08:38:14;;;;;;;24.02;21.63;;;;;;;23.87;66.06;101277.22;5114805;27;20051;-60
2021/06/18 08:40:41;;;;;;;25.42;21.98;;;;;;;23.83;66.71;101271.34;5132797;27;20035;-60
2021/06/18 08:43:08;;;;;;;25.85;21.92;;;;;;;23.88;66.66;101260.94;5114537;27;20047;-59
2021/06/18 08:45:35;;;;;;;24.70;22.10;;;;;;;23.93;66.89;101255.88;5114639;27;20499;-44
2021/06/18 08:48:02;;;;;;;27.90;24.40;;;;;;;23.91;66.92;101238.28;5131765;27;20055;-45
2021/06/18 08:50:29;;;;;;;26.15;23.42;;;;;;;23.85;67.47;101241.66;5132581;27;20511;-44
2021/06/18 08:52:57;;;;;;;26.27;23.58;;;;;;;23.94;67.37;101237.91;5132925;27;20051;-61
2021/06/18 08:55:29;;;;;;;27.63;24.73;;;;;;;24.04;66.73;101251.13;5132722;27;20047;-60
2021/06/18 08:57:58;;;;;;;26.92;24.10;;;;;;;24.21;66.64;101246.44;5131801;27;20043;-60
2021/06/18 09:00:26;;;;;;;28.77;25.88;;;;;;;24.14;67.30;101249.84;5132020;27;20534;-60
2021/06/18 09:02:55;;;;;;;28.58;25.58;;;;;;;24.20;66.80;101250.13;5132229;27;20085;-60
2021/06/18 09:05:22;;;;;;;28.45;25.38;;;;;;;24.23;67.05;101244.44;5114523;27;20053;-61
2021/06/18 09:08:03;;;;;;;29.67;26.42;;;;;;;24.32;66.87;101251.38;5131891;27;20043;-60
2021/06/18 09:10:40;;;;;;;29.70;25.08;;;;;;;24.63;66.09;101250.47;5132610;27;20559;-61
2021/06/18 09:13:14;;;;;;;28.15;25.15;;;;;;;24.66;65.69;101260.84;5131487;27;20050;-45
2021/06/18 09:15:50;;;;;;;28.33;25.38;;;;;;;24.83;65.51;101263.38;5131086;27;20066;-43
2021/06/18 09:18:22;;;;;;;27.58;24.70;;;;;;;25.04;63.80;101263.47;5131821;27;20126;-61
2021/06/18 09:20:50;;;;;;;29.75;26.67;;;;;;;25.23;63.13;101262.06;5130946;27;20043;-61
2021/06/18 09:23:28;;;;;;;30.15;27.08;;;;;;;25.54;63.61;101260.22;5113651;27;20051;-61
2021/06/18 09:26:38;;;;;;;26.83;24.02;;;;;;;25.65;63.06;101260.56;5130964;27;20486;-61
2021/06/18 09:29:18;;;;;;;26.85;24.08;;;;;;;25.84;62.43;101268.19;5032301;28;20144;-61
2021/06/18 09:32:14;;;;;;;25.83;22.25;;;;;;;25.91;61.38;101269.94;5092097;27;20055;-61
2021/06/18 09:34:49;;;;;;;22.08;19.67;;;;;;;26.04;60.29;101274.69;5113614;27;20059;-61
2021/06/18 09:37:29;;;;;;;20.90;18.58;;;;;;;26.12;58.59;101271.00;5131515;27;20043;-61
2021/06/18 09:39:55;;;;;;;20.80;17.45;;;;;;;26.34;59.11;101271.00;5130925;27;20054;-61
2021/06/18 09:42:32;;;;;;;20.65;17.13;;;;;;;26.51;57.91;101260.78;5129898;27;20047;-61
2021/06/18 09:44:59;;;;;;;21.55;18.10;;;;;;;26.55;57.21;101262.06;5129641;27;20062;-61
2021/06/18 09:47:25;;;;;;;19.85;17.38;;;;;;;26.71;57.53;101253.69;5130747;27;20194;-61
2021/06/18 09:49:52;;;;;;;19.15;17.10;;;;;;;26.98;56.73;101253.84;5112272;27;20047;-61
2021/06/18 09:52:21;;;;;;;18.88;16.88;;;;;;;26.93;56.82;101248.25;5130890;27;20460;-60
2021/06/18 09:54:52;;;;;;;20.75;18.75;;;;;;;27.22;55.24;101244.44;5130306;27;20055;-60
2021/06/18 09:57:40;;;;;;;17.77;15.80;;;;;;;27.47;54.43;101250.19;5129302;27;20059;-61
2021/06/18 10:00:16;;;;;;;16.08;14.38;;;;;;;27.83;54.48;101246.31;5129210;27;20055;-61
2021/06/18 10:02:45;;;;;;;19.40;15.82;;;;;;;27.99;52.68;101249.66;5112351;27;20047;-61
2021/06/18 10:05:15;;;;;;;19.20;16.85;;;;;;;28.23;51.71;101250.97;5130860;27;20051;-60
2021/06/18 10:07:43;;;;;;;16.05;14.35;;;;;;;28.41;51.69;101249.50;5131135;27;20057;-60
2021/06/18 10:10:12;;;;;;;18.02;14.40;;;;;;;28.45;51.74;101254.28;5130503;27;20074;-60
2021/06/18 10:12:40;;;;;;;20.73;16.13;;;;;;;28.48;51.19;101251.16;5112221;27;20047;-61
2021/06/18 10:15:13;;;;;;;17.92;16.13;;;;;;;28.63;51.44;101242.88;5111492;27;20452;-61
2021/06/18 10:17:42;;;;;;;22.77;16.73;;;;;;;28.89;51.36;101249.25;5130559;27;20095;-61
2021/06/18 10:20:12;;;;;;;19.23;15.80;;;;;;;29.16;49.99;101243.75;5112027;27;20547;-61
2021/06/18 10:22:59;;;;;;;16.50;14.27;;;;;;;29.38;50.48;101236.19;5131209;27;20070;-60
2021/06/18 10:25:37;;;;;;;15.68;14.02;;;;;;;29.58;48.73;101237.97;5112897;27;20043;-61
2021/06/18 10:28:10;;;;;;;21.17;17.02;;;;;;;29.42;47.90;101229.28;5129780;27;20051;-62
2021/06/18 10:30:45;;;;;;;19.20;17.10;;;;;;;29.46;47.59;101230.53;5112116;27;20051;-61
2021/06/18 10:33:28;;;;;;;19.27;15.40;;;;;;;29.84;47.77;101223.41;5112025;28;20423;-61
2021/06/18 10:36:17;;;;;;;19.65;17.25;;;;;;;29.89;47.22;101225.50;5129602;27;20050;-62
2021/06/18 10:38:48;;;;;;;22.15;19.95;;;;;;;29.74;47.32;101223.91;5129822;27;20102;-60
2021/06/18 10:41:17;;;;;;;21.73;18.77;;;;;;;29.95;47.89;101236.28;5129749;27;20552;-60
2021/06/18 10:43:57;;;;;;;19.58;16.73;;;;;;;30.31;47.46;101237.47;5112540;28;20406;-60
2021/06/18 10:46:29;;;;;;;22.60;18.23;;;;;;;30.25;47.00;101229.38;5129539;27;20042;-60
2021/06/18 10:48:57;;;;;;;17.83;15.93;;;;;;;30.57;47.03;101224.75;5127083;27;20047;-60
2021/06/18 10:51:27;;;;;;;21.98;18.67;;;;;;;30.80;46.50;101220.53;5111327;27;20525;-59
2021/06/18 10:54:05;;;;;;;22.42;18.30;;;;;;;31.04;45.83;101226.13;5129813;27;20051;-61
2021/06/18 10:56:53;;;;;;;19.90;17.55;;;;;;;31.40;45.76;101218.97;5111100;28;20047;-60
2021/06/18 10:59:39;;;;;;;20.25;17.98;;;;;;;31.41;44.42;101210.59;5129656;28;20527;-60
2021/06/18 11:02:37;;;;;;;20.08;17.80;;;;;;;31.58;43.59;101215.38;5128482;28;20047;-49
2021/06/18 11:05:38;;;;;;;21.75;19.45;;;;;;;31.51;44.64;101204.63;5112331;28;20054;-49
2021/06/18 11:08:14;;;;;;;18.80;16.80;;;;;;;31.92;44.37;101189.38;5129127;28;20047;-46
2021/06/18 11:10:59;;;;;;;17.80;15.73;;;;;;;32.24;44.55;101199.13;5128336;28;20081;-51
2021/06/18 11:13:26;;;;;;;21.60;19.40;;;;;;;32.05;43.48;101199.19;5110943;28;20055;-50
2021/06/18 11:15:53;;;;;;;22.90;20.25;;;;;;;31.64;44.35;101195.47;5128381;28;20458;-58
2021/06/18 11:18:32;;;;;;;23.17;19.70;;;;;;;31.90;43.72;101196.94;5110529;28;20059;-58
2021/06/18 11:21:02;;;;;;;19.50;17.23;;;;;;;32.35;43.77;101190.13;5110639;28;20057;-59